Main page


Airports :

Brize Norton, England

RAF Brize Norton

latitude: 51-45N, longitude: 001-35W, elevation: 88 m

Current weather observation

The report was made 55 minutes ago, at 16:50 UTC
Wind 8 kt from the North
Temperature 7°C
Humidity 53%
Pressure 1031 hPa
Visibility 10 km or more
Broken clouds at a height of 4200 ft
Broken clouds at a height of 25000 ft

METAR: EGVN 201650Z 01008KT 9999 BKN042 BKN250 07/M02 Q1031 NOSIG

Time: 17:45 (17:45 UTC)


The report was made 1 hour and 17 minutes ago, at 16:28 UTC
Forecast valid from 20 at 18 UTC to 21 at 18 UTC
Wind 9 kt from the North
Visibility 10 km or more
Scattered clouds at a height of 3500 ft
Probability 30%
from 21 at 03 UTC to 21 at 07 UTC
Visibility: 5000 m
Shallow fog

TAF: EGVN 201628Z 2018/2118 36009KT 9999 SCT035 PROB30 2103/2107 5000 MIFG

Weather observations and forecasts of more than 4000 airports (METAR and TAF reports).

The available stations are represented by yellow and red dots on the map.

Hover mouse over dot to see the name of the station.

Then click to see weather observations and forecasts.

To change the map : click on the green buttons with a black cross to zoom in, on the green button with a dash to zoom out, or on the green arrows for adjacent maps.